sensor_id;sensor_type;location;lat;lon;timestamp;P1;durP1;ratioP1;P2;durP2;ratioP2
29568;SDS011;16501;51.462;14.346;2022-08-19T00:01:46;15.57;;;14.02;;
29568;SDS011;16501;51.462;14.346;2022-08-19T00:04:14;15.40;;;13.43;;
29568;SDS011;16501;51.462;14.346;2022-08-19T00:06:41;15.68;;;13.70;;
29568;SDS011;16501;51.462;14.346;2022-08-19T00:09:09;16.48;;;13.82;;
29568;SDS011;16501;51.462;14.346;2022-08-19T00:11:37;17.05;;;13.68;;
29568;SDS011;16501;51.462;14.346;2022-08-19T00:14:04;19.02;;;13.52;;
29568;SDS011;16501;51.462;14.346;2022-08-19T00:16:33;16.67;;;13.63;;
29568;SDS011;16501;51.462;14.346;2022-08-19T00:18:59;15.23;;;13.63;;
29568;SDS011;16501;51.462;14.346;2022-08-19T00:21:24;18.38;;;13.90;;
29568;SDS011;16501;51.462;14.346;2022-08-19T00:23:51;16.92;;;14.32;;
29568;SDS011;16501;51.462;14.346;2022-08-19T00:26:18;16.00;;;13.98;;
29568;SDS011;16501;51.462;14.346;2022-08-19T00:28:44;19.73;;;14.38;;
29568;SDS011;16501;51.462;14.346;2022-08-19T00:31:10;16.92;;;13.93;;
29568;SDS011;16501;51.462;14.346;2022-08-19T00:33:36;18.88;;;14.05;;
29568;SDS011;16501;51.462;14.346;2022-08-19T00:36:03;18.58;;;14.57;;
29568;SDS011;16501;51.462;14.346;2022-08-19T00:38:31;20.70;;;14.63;;
29568;SDS011;16501;51.462;14.346;2022-08-19T00:40:57;17.50;;;13.85;;
29568;SDS011;16501;51.462;14.346;2022-08-19T00:43:25;16.02;;;14.35;;
29568;SDS011;16501;51.462;14.346;2022-08-19T00:45:53;18.05;;;14.48;;
29568;SDS011;16501;51.462;14.346;2022-08-19T00:48:19;16.05;;;14.27;;
29568;SDS011;16501;51.462;14.346;2022-08-19T00:50:46;20.30;;;14.63;;
29568;SDS011;16501;51.462;14.346;2022-08-19T00:53:14;22.20;;;14.77;;
29568;SDS011;16501;51.462;14.346;2022-08-19T00:55:47;21.13;;;16.02;;
29568;SDS011;16501;51.462;14.346;2022-08-19T00:58:16;25.63;;;14.70;;
29568;SDS011;16501;51.462;14.346;2022-08-19T01:00:45;25.42;;;15.32;;
29568;SDS011;16501;51.462;14.346;2022-08-19T01:03:17;21.30;;;14.43;;
29568;SDS011;16501;51.462;14.346;2022-08-19T01:05:46;16.20;;;14.40;;
29568;SDS011;16501;51.462;14.346;2022-08-19T01:08:14;20.10;;;14.73;;
29568;SDS011;16501;51.462;14.346;2022-08-19T01:10:52;22.88;;;14.57;;
29568;SDS011;16501;51.462;14.346;2022-08-19T01:13:21;18.70;;;14.68;;
29568;SDS011;16501;51.462;14.346;2022-08-19T01:15:50;23.10;;;14.88;;
29568;SDS011;16501;51.462;14.346;2022-08-19T01:18:19;18.70;;;14.52;;
29568;SDS011;16501;51.462;14.346;2022-08-19T01:20:45;22.30;;;15.30;;
29568;SDS011;16501;51.462;14.346;2022-08-19T01:23:13;17.83;;;14.10;;
29568;SDS011;16501;51.462;14.346;2022-08-19T01:25:44;18.83;;;15.77;;
29568;SDS011;16501;51.462;14.346;2022-08-19T01:30:44;16.83;;;13.30;;
29568;SDS011;16501;51.462;14.346;2022-08-19T01:33:11;19.23;;;14.73;;
29568;SDS011;16501;51.462;14.346;2022-08-19T01:35:36;18.73;;;14.68;;
29568;SDS011;16501;51.462;14.346;2022-08-19T01:38:03;18.85;;;14.82;;
29568;SDS011;16501;51.462;14.346;2022-08-19T01:40:33;23.00;;;15.15;;
29568;SDS011;16501;51.462;14.346;2022-08-19T01:43:02;18.77;;;14.77;;
29568;SDS011;16501;51.462;14.346;2022-08-19T01:45:29;17.67;;;14.57;;
29568;SDS011;16501;51.462;14.346;2022-08-19T01:47:56;16.77;;;14.68;;
29568;SDS011;16501;51.462;14.346;2022-08-19T01:50:24;17.63;;;14.73;;
29568;SDS011;16501;51.462;14.346;2022-08-19T01:52:50;17.75;;;14.20;;
29568;SDS011;16501;51.462;14.346;2022-08-19T01:55:17;21.75;;;15.70;;
29568;SDS011;16501;51.462;14.346;2022-08-19T01:57:46;22.80;;;15.90;;
29568;SDS011;16501;51.462;14.346;2022-08-19T02:00:15;19.45;;;15.55;;
29568;SDS011;16501;51.462;14.346;2022-08-19T02:02:44;24.48;;;16.52;;
29568;SDS011;16501;51.462;14.346;2022-08-19T02:05:09;25.98;;;16.48;;
29568;SDS011;16501;51.462;14.346;2022-08-19T02:07:35;23.27;;;15.52;;
29568;SDS011;16501;51.462;14.346;2022-08-19T02:10:05;19.35;;;15.80;;
29568;SDS011;16501;51.462;14.346;2022-08-19T02:12:33;19.08;;;16.10;;
29568;SDS011;16501;51.462;14.346;2022-08-19T02:14:58;20.90;;;15.57;;
29568;SDS011;16501;51.462;14.346;2022-08-19T02:17:24;19.00;;;15.07;;
29568;SDS011;16501;51.462;14.346;2022-08-19T02:19:49;19.40;;;14.77;;
29568;SDS011;16501;51.462;14.346;2022-08-19T02:22:15;18.52;;;14.73;;
29568;SDS011;16501;51.462;14.346;2022-08-19T02:24:40;21.67;;;15.55;;
29568;SDS011;16501;51.462;14.346;2022-08-19T02:27:05;18.55;;;15.27;;
29568;SDS011;16501;51.462;14.346;2022-08-19T02:29:31;21.20;;;15.45;;
29568;SDS011;16501;51.462;14.346;2022-08-19T02:31:56;18.33;;;14.95;;
29568;SDS011;16501;51.462;14.346;2022-08-19T02:34:22;19.80;;;15.68;;
29568;SDS011;16501;51.462;14.346;2022-08-19T02:36:49;25.58;;;15.50;;
29568;SDS011;16501;51.462;14.346;2022-08-19T02:39:15;17.52;;;14.70;;
29568;SDS011;16501;51.462;14.346;2022-08-19T02:41:41;17.27;;;15.05;;
29568;SDS011;16501;51.462;14.346;2022-08-19T02:44:06;18.67;;;15.55;;
29568;SDS011;16501;51.462;14.346;2022-08-19T02:46:32;17.23;;;15.38;;
29568;SDS011;16501;51.462;14.346;2022-08-19T02:49:03;21.08;;;16.25;;
29568;SDS011;16501;51.462;14.346;2022-08-19T02:51:31;19.02;;;15.05;;
29568;SDS011;16501;51.462;14.346;2022-08-19T02:56:28;17.60;;;15.32;;
29568;SDS011;16501;51.462;14.346;2022-08-19T02:58:56;16.63;;;14.82;;
29568;SDS011;16501;51.462;14.346;2022-08-19T03:01:32;20.70;;;15.52;;
29568;SDS011;16501;51.462;14.346;2022-08-19T03:03:59;19.88;;;14.82;;
29568;SDS011;16501;51.462;14.346;2022-08-19T03:06:26;17.25;;;14.65;;
29568;SDS011;16501;51.462;14.346;2022-08-19T03:08:52;16.92;;;14.02;;
29568;SDS011;16501;51.462;14.346;2022-08-19T03:11:26;23.38;;;15.27;;
29568;SDS011;16501;51.462;14.346;2022-08-19T03:13:54;21.38;;;16.55;;
29568;SDS011;16501;51.462;14.346;2022-08-19T03:16:21;24.35;;;15.98;;
29568;SDS011;16501;51.462;14.346;2022-08-19T03:18:48;23.48;;;16.50;;
29568;SDS011;16501;51.462;14.346;2022-08-19T03:21:16;26.58;;;15.90;;
29568;SDS011;16501;51.462;14.346;2022-08-19T03:23:44;22.15;;;15.40;;
29568;SDS011;16501;51.462;14.346;2022-08-19T03:26:10;22.98;;;16.13;;
29568;SDS011;16501;51.462;14.346;2022-08-19T03:28:36;24.33;;;15.07;;
29568;SDS011;16501;51.462;14.346;2022-08-19T03:31:06;32.25;;;15.10;;
29568;SDS011;16501;51.462;14.346;2022-08-19T03:33:33;21.13;;;14.98;;
29568;SDS011;16501;51.462;14.346;2022-08-19T03:38:32;24.13;;;15.70;;
29568;SDS011;16501;51.462;14.346;2022-08-19T03:40:57;19.52;;;14.85;;
29568;SDS011;16501;51.462;14.346;2022-08-19T03:43:24;17.77;;;14.90;;
29568;SDS011;16501;51.462;14.346;2022-08-19T03:45:58;15.50;;;13.90;;
29568;SDS011;16501;51.462;14.346;2022-08-19T03:48:36;21.20;;;14.20;;
29568;SDS011;16501;51.462;14.346;2022-08-19T03:51:03;17.85;;;14.30;;
29568;SDS011;16501;51.462;14.346;2022-08-19T03:53:29;20.98;;;14.13;;
29568;SDS011;16501;51.462;14.346;2022-08-19T03:55:56;16.95;;;13.73;;
29568;SDS011;16501;51.462;14.346;2022-08-19T03:58:26;24.40;;;14.85;;
29568;SDS011;16501;51.462;14.346;2022-08-19T04:00:55;17.98;;;14.70;;
29568;SDS011;16501;51.462;14.346;2022-08-19T04:03:22;15.55;;;13.23;;
29568;SDS011;16501;51.462;14.346;2022-08-19T04:05:48;17.25;;;13.68;;
29568;SDS011;16501;51.462;14.346;2022-08-19T04:08:14;19.58;;;13.88;;
29568;SDS011;16501;51.462;14.346;2022-08-19T04:10:43;19.90;;;13.18;;
29568;SDS011;16501;51.462;14.346;2022-08-19T04:13:09;19.50;;;14.75;;
29568;SDS011;16501;51.462;14.346;2022-08-19T04:15:39;15.60;;;13.98;;
29568;SDS011;16501;51.462;14.346;2022-08-19T04:18:06;16.25;;;13.82;;
29568;SDS011;16501;51.462;14.346;2022-08-19T04:20:42;24.63;;;15.18;;
29568;SDS011;16501;51.462;14.346;2022-08-19T04:23:09;15.70;;;13.20;;
29568;SDS011;16501;51.462;14.346;2022-08-19T04:25:38;15.65;;;12.52;;
29568;SDS011;16501;51.462;14.346;2022-08-19T04:28:05;16.65;;;13.43;;
29568;SDS011;16501;51.462;14.346;2022-08-19T04:30:36;14.98;;;12.65;;
29568;SDS011;16501;51.462;14.346;2022-08-19T04:33:02;16.77;;;13.43;;
29568;SDS011;16501;51.462;14.346;2022-08-19T04:35:34;19.02;;;13.05;;
29568;SDS011;16501;51.462;14.346;2022-08-19T04:38:00;18.10;;;13.27;;
29568;SDS011;16501;51.462;14.346;2022-08-19T04:40:25;17.33;;;13.55;;
29568;SDS011;16501;51.462;14.346;2022-08-19T04:43:09;14.38;;;12.93;;
29568;SDS011;16501;51.462;14.346;2022-08-19T04:45:37;18.38;;;13.52;;
29568;SDS011;16501;51.462;14.346;2022-08-19T04:48:02;16.15;;;12.90;;
29568;SDS011;16501;51.462;14.346;2022-08-19T04:50:29;21.63;;;13.95;;
29568;SDS011;16501;51.462;14.346;2022-08-19T04:52:54;17.10;;;13.27;;
29568;SDS011;16501;51.462;14.346;2022-08-19T04:55:22;13.98;;;12.07;;
29568;SDS011;16501;51.462;14.346;2022-08-19T04:57:47;24.67;;;12.57;;
29568;SDS011;16501;51.462;14.346;2022-08-19T05:00:14;14.73;;;12.95;;
29568;SDS011;16501;51.462;14.346;2022-08-19T05:02:39;14.07;;;12.02;;
29568;SDS011;16501;51.462;14.346;2022-08-19T05:05:05;17.38;;;13.45;;
29568;SDS011;16501;51.462;14.346;2022-08-19T05:07:31;17.63;;;12.63;;
29568;SDS011;16501;51.462;14.346;2022-08-19T05:09:57;20.75;;;13.88;;
29568;SDS011;16501;51.462;14.346;2022-08-19T05:12:23;23.35;;;14.50;;
29568;SDS011;16501;51.462;14.346;2022-08-19T05:14:49;19.05;;;14.48;;
29568;SDS011;16501;51.462;14.346;2022-08-19T05:17:15;25.08;;;18.95;;
29568;SDS011;16501;51.462;14.346;2022-08-19T05:19:41;27.80;;;20.60;;
29568;SDS011;16501;51.462;14.346;2022-08-19T05:22:26;22.95;;;17.60;;
29568;SDS011;16501;51.462;14.346;2022-08-19T05:25:04;23.90;;;17.45;;
29568;SDS011;16501;51.462;14.346;2022-08-19T05:27:32;17.58;;;15.70;;
29568;SDS011;16501;51.462;14.346;2022-08-19T05:29:57;17.88;;;15.27;;
29568;SDS011;16501;51.462;14.346;2022-08-19T05:32:23;19.80;;;16.90;;
29568;SDS011;16501;51.462;14.346;2022-08-19T05:34:48;19.65;;;15.20;;
29568;SDS011;16501;51.462;14.346;2022-08-19T05:37:14;22.08;;;16.67;;
29568;SDS011;16501;51.462;14.346;2022-08-19T05:39:39;22.02;;;16.38;;
29568;SDS011;16501;51.462;14.346;2022-08-19T05:42:06;21.67;;;16.20;;
29568;SDS011;16501;51.462;14.346;2022-08-19T05:44:35;18.10;;;15.00;;
29568;SDS011;16501;51.462;14.346;2022-08-19T05:47:04;23.70;;;16.05;;
29568;SDS011;16501;51.462;14.346;2022-08-19T05:49:33;23.90;;;16.30;;
29568;SDS011;16501;51.462;14.346;2022-08-19T05:52:01;17.45;;;15.10;;
29568;SDS011;16501;51.462;14.346;2022-08-19T05:54:28;19.60;;;16.05;;
29568;SDS011;16501;51.462;14.346;2022-08-19T05:56:53;19.70;;;16.17;;
29568;SDS011;16501;51.462;14.346;2022-08-19T05:59:19;21.83;;;15.27;;
29568;SDS011;16501;51.462;14.346;2022-08-19T06:01:46;19.83;;;16.23;;
29568;SDS011;16501;51.462;14.346;2022-08-19T06:04:15;18.48;;;15.77;;
29568;SDS011;16501;51.462;14.346;2022-08-19T06:06:43;19.05;;;15.45;;
29568;SDS011;16501;51.462;14.346;2022-08-19T06:09:09;17.23;;;15.38;;
29568;SDS011;16501;51.462;14.346;2022-08-19T06:14:06;22.98;;;18.05;;
29568;SDS011;16501;51.462;14.346;2022-08-19T06:16:37;25.65;;;20.95;;
29568;SDS011;16501;51.462;14.346;2022-08-19T06:19:05;30.27;;;21.15;;
29568;SDS011;16501;51.462;14.346;2022-08-19T06:21:33;27.45;;;23.45;;
29568;SDS011;16501;51.462;14.346;2022-08-19T06:24:02;21.92;;;17.90;;
29568;SDS011;16501;51.462;14.346;2022-08-19T06:26:28;19.98;;;15.50;;
29568;SDS011;16501;51.462;14.346;2022-08-19T06:28:54;21.10;;;15.93;;
29568;SDS011;16501;51.462;14.346;2022-08-19T06:31:22;22.50;;;15.35;;
29568;SDS011;16501;51.462;14.346;2022-08-19T06:33:49;29.13;;;17.55;;
29568;SDS011;16501;51.462;14.346;2022-08-19T06:36:22;23.30;;;17.00;;
29568;SDS011;16501;51.462;14.346;2022-08-19T06:38:54;25.45;;;17.30;;
29568;SDS011;16501;51.462;14.346;2022-08-19T06:41:20;27.50;;;17.55;;
29568;SDS011;16501;51.462;14.346;2022-08-19T06:43:45;22.98;;;17.50;;
29568;SDS011;16501;51.462;14.346;2022-08-19T06:46:15;23.75;;;17.35;;
29568;SDS011;16501;51.462;14.346;2022-08-19T06:51:08;20.60;;;17.33;;
29568;SDS011;16501;51.462;14.346;2022-08-19T06:53:33;25.73;;;18.77;;
29568;SDS011;16501;51.462;14.346;2022-08-19T06:55:59;23.85;;;18.77;;
29568;SDS011;16501;51.462;14.346;2022-08-19T06:58:30;24.27;;;19.02;;
29568;SDS011;16501;51.462;14.346;2022-08-19T07:01:00;26.38;;;19.65;;
29568;SDS011;16501;51.462;14.346;2022-08-19T07:03:28;29.92;;;20.45;;
29568;SDS011;16501;51.462;14.346;2022-08-19T07:05:56;24.02;;;20.65;;
29568;SDS011;16501;51.462;14.346;2022-08-19T07:08:21;26.92;;;18.52;;
29568;SDS011;16501;51.462;14.346;2022-08-19T07:10:46;28.58;;;20.42;;
29568;SDS011;16501;51.462;14.346;2022-08-19T07:13:12;28.40;;;20.13;;
29568;SDS011;16501;51.462;14.346;2022-08-19T07:15:38;28.17;;;20.30;;
29568;SDS011;16501;51.462;14.346;2022-08-19T07:18:03;29.10;;;21.60;;
29568;SDS011;16501;51.462;14.346;2022-08-19T07:20:28;31.15;;;22.08;;
29568;SDS011;16501;51.462;14.346;2022-08-19T07:22:55;28.05;;;20.83;;
29568;SDS011;16501;51.462;14.346;2022-08-19T07:25:20;30.00;;;21.17;;
29568;SDS011;16501;51.462;14.346;2022-08-19T07:27:48;26.20;;;19.92;;
29568;SDS011;16501;51.462;14.346;2022-08-19T07:30:14;29.63;;;19.63;;
29568;SDS011;16501;51.462;14.346;2022-08-19T07:32:39;24.63;;;19.27;;
29568;SDS011;16501;51.462;14.346;2022-08-19T07:35:06;25.95;;;18.98;;
29568;SDS011;16501;51.462;14.346;2022-08-19T07:37:31;22.95;;;18.60;;
29568;SDS011;16501;51.462;14.346;2022-08-19T07:39:57;28.80;;;18.63;;
29568;SDS011;16501;51.462;14.346;2022-08-19T07:42:22;25.95;;;18.70;;
29568;SDS011;16501;51.462;14.346;2022-08-19T07:44:48;21.00;;;17.92;;
29568;SDS011;16501;51.462;14.346;2022-08-19T07:47:14;24.73;;;17.92;;
29568;SDS011;16501;51.462;14.346;2022-08-19T07:49:41;21.05;;;18.35;;
29568;SDS011;16501;51.462;14.346;2022-08-19T07:52:08;22.98;;;16.88;;
29568;SDS011;16501;51.462;14.346;2022-08-19T07:54:35;21.92;;;18.13;;
29568;SDS011;16501;51.462;14.346;2022-08-19T07:57:02;25.08;;;17.60;;
29568;SDS011;16501;51.462;14.346;2022-08-19T07:59:28;20.38;;;17.23;;
29568;SDS011;16501;51.462;14.346;2022-08-19T08:01:54;26.08;;;17.30;;
29568;SDS011;16501;51.462;14.346;2022-08-19T08:04:21;20.42;;;17.33;;
29568;SDS011;16501;51.462;14.346;2022-08-19T08:07:05;21.00;;;16.70;;
29568;SDS011;16501;51.462;14.346;2022-08-19T08:09:50;21.83;;;17.92;;
29568;SDS011;16501;51.462;14.346;2022-08-19T08:12:21;19.90;;;17.60;;
29568;SDS011;16501;51.462;14.346;2022-08-19T08:14:51;23.13;;;17.73;;
29568;SDS011;16501;51.462;14.346;2022-08-19T08:17:22;20.23;;;17.08;;
29568;SDS011;16501;51.462;14.346;2022-08-19T08:19:51;23.27;;;17.65;;
29568;SDS011;16501;51.462;14.346;2022-08-19T08:22:18;23.13;;;16.73;;
29568;SDS011;16501;51.462;14.346;2022-08-19T08:25:05;20.27;;;16.52;;
29568;SDS011;16501;51.462;14.346;2022-08-19T08:27:35;19.40;;;15.77;;
29568;SDS011;16501;51.462;14.346;2022-08-19T08:30:02;25.30;;;16.95;;
29568;SDS011;16501;51.462;14.346;2022-08-19T08:32:29;20.35;;;16.60;;
29568;SDS011;16501;51.462;14.346;2022-08-19T08:34:55;19.67;;;15.90;;
29568;SDS011;16501;51.462;14.346;2022-08-19T08:37:20;19.00;;;17.00;;
29568;SDS011;16501;51.462;14.346;2022-08-19T08:39:48;23.55;;;17.45;;
29568;SDS011;16501;51.462;14.346;2022-08-19T08:42:19;22.63;;;17.52;;
29568;SDS011;16501;51.462;14.346;2022-08-19T08:44:55;20.00;;;16.80;;
29568;SDS011;16501;51.462;14.346;2022-08-19T08:47:29;18.23;;;16.33;;
29568;SDS011;16501;51.462;14.346;2022-08-19T08:52:33;26.50;;;16.77;;
29568;SDS011;16501;51.462;14.346;2022-08-19T08:55:03;23.42;;;17.10;;
29568;SDS011;16501;51.462;14.346;2022-08-19T08:57:36;20.17;;;16.63;;
29568;SDS011;16501;51.462;14.346;2022-08-19T09:00:10;23.38;;;17.13;;
29568;SDS011;16501;51.462;14.346;2022-08-19T09:02:42;27.50;;;17.75;;
29568;SDS011;16501;51.462;14.346;2022-08-19T09:05:08;21.48;;;16.88;;
29568;SDS011;16501;51.462;14.346;2022-08-19T09:07:39;24.52;;;17.73;;
29568;SDS011;16501;51.462;14.346;2022-08-19T09:10:19;22.17;;;17.45;;
29568;SDS011;16501;51.462;14.346;2022-08-19T09:13:27;23.60;;;17.08;;
29568;SDS011;16501;51.462;14.346;2022-08-19T09:16:15;24.15;;;18.50;;
29568;SDS011;16501;51.462;14.346;2022-08-19T09:18:46;26.38;;;16.38;;
29568;SDS011;16501;51.462;14.346;2022-08-19T09:21:18;20.65;;;17.40;;
29568;SDS011;16501;51.462;14.346;2022-08-19T09:23:44;22.70;;;17.02;;
29568;SDS011;16501;51.462;14.346;2022-08-19T09:26:10;19.67;;;17.10;;
29568;SDS011;16501;51.462;14.346;2022-08-19T09:28:41;19.00;;;16.95;;
29568;SDS011;16501;51.462;14.346;2022-08-19T09:31:10;25.60;;;16.67;;
29568;SDS011;16501;51.462;14.346;2022-08-19T09:33:36;19.77;;;16.05;;
29568;SDS011;16501;51.462;14.346;2022-08-19T09:36:03;23.17;;;17.60;;
29568;SDS011;16501;51.462;14.346;2022-08-19T09:38:33;24.88;;;16.95;;
29568;SDS011;16501;51.462;14.346;2022-08-19T09:41:03;24.58;;;17.70;;
29568;SDS011;16501;51.462;14.346;2022-08-19T09:43:31;22.67;;;17.50;;
29568;SDS011;16501;51.462;14.346;2022-08-19T09:45:59;22.05;;;16.73;;
29568;SDS011;16501;51.462;14.346;2022-08-19T09:48:25;24.05;;;16.98;;
29568;SDS011;16501;51.462;14.346;2022-08-19T09:50:50;21.02;;;16.85;;
29568;SDS011;16501;51.462;14.346;2022-08-19T09:53:16;22.08;;;17.25;;
29568;SDS011;16501;51.462;14.346;2022-08-19T09:55:42;21.55;;;17.02;;
29568;SDS011;16501;51.462;14.346;2022-08-19T09:58:08;18.88;;;15.50;;
29568;SDS011;16501;51.462;14.346;2022-08-19T10:00:33;22.73;;;16.23;;
29568;SDS011;16501;51.462;14.346;2022-08-19T10:02:58;21.38;;;16.42;;
29568;SDS011;16501;51.462;14.346;2022-08-19T10:05:24;19.40;;;15.32;;
29568;SDS011;16501;51.462;14.346;2022-08-19T10:08:09;19.05;;;14.77;;
29568;SDS011;16501;51.462;14.346;2022-08-19T10:10:35;19.50;;;15.40;;
29568;SDS011;16501;51.462;14.346;2022-08-19T10:13:00;17.55;;;15.60;;
29568;SDS011;16501;51.462;14.346;2022-08-19T10:15:26;19.52;;;15.43;;
29568;SDS011;16501;51.462;14.346;2022-08-19T10:17:51;20.70;;;15.38;;
29568;SDS011;16501;51.462;14.346;2022-08-19T10:20:16;20.88;;;15.50;;
29568;SDS011;16501;51.462;14.346;2022-08-19T10:22:42;22.05;;;15.73;;
29568;SDS011;16501;51.462;14.346;2022-08-19T10:25:08;20.42;;;15.10;;
29568;SDS011;16501;51.462;14.346;2022-08-19T10:27:33;18.40;;;15.70;;
29568;SDS011;16501;51.462;14.346;2022-08-19T10:30:00;17.65;;;15.70;;
29568;SDS011;16501;51.462;14.346;2022-08-19T10:32:26;19.15;;;15.82;;
29568;SDS011;16501;51.462;14.346;2022-08-19T10:34:53;18.95;;;16.10;;
29568;SDS011;16501;51.462;14.346;2022-08-19T10:37:18;24.98;;;16.45;;
29568;SDS011;16501;51.462;14.346;2022-08-19T10:39:45;19.10;;;16.33;;
29568;SDS011;16501;51.462;14.346;2022-08-19T10:42:12;22.13;;;16.30;;
29568;SDS011;16501;51.462;14.346;2022-08-19T10:44:40;21.13;;;17.17;;
29568;SDS011;16501;51.462;14.346;2022-08-19T10:47:15;20.23;;;16.40;;
29568;SDS011;16501;51.462;14.346;2022-08-19T10:49:40;18.80;;;16.13;;
29568;SDS011;16501;51.462;14.346;2022-08-19T10:52:25;23.48;;;15.90;;
29568;SDS011;16501;51.462;14.346;2022-08-19T10:55:01;23.73;;;16.35;;
29568;SDS011;16501;51.462;14.346;2022-08-19T10:57:46;20.85;;;16.70;;
29568;SDS011;16501;51.462;14.346;2022-08-19T11:00:12;20.95;;;17.20;;
29568;SDS011;16501;51.462;14.346;2022-08-19T11:02:38;20.80;;;17.42;;
29568;SDS011;16501;51.462;14.346;2022-08-19T11:05:04;21.38;;;16.83;;
29568;SDS011;16501;51.462;14.346;2022-08-19T11:07:30;22.48;;;17.92;;
29568;SDS011;16501;51.462;14.346;2022-08-19T11:09:57;21.48;;;16.55;;
29568;SDS011;16501;51.462;14.346;2022-08-19T11:12:22;19.50;;;17.15;;
29568;SDS011;16501;51.462;14.346;2022-08-19T11:14:47;20.05;;;17.67;;
29568;SDS011;16501;51.462;14.346;2022-08-19T11:17:15;22.75;;;16.63;;
29568;SDS011;16501;51.462;14.346;2022-08-19T11:19:41;20.73;;;17.27;;
29568;SDS011;16501;51.462;14.346;2022-08-19T11:22:08;19.73;;;16.48;;
29568;SDS011;16501;51.462;14.346;2022-08-19T11:24:36;19.95;;;16.52;;
29568;SDS011;16501;51.462;14.346;2022-08-19T11:27:08;22.58;;;17.40;;
29568;SDS011;16501;51.462;14.346;2022-08-19T11:29:35;22.30;;;17.00;;
29568;SDS011;16501;51.462;14.346;2022-08-19T11:32:03;20.98;;;17.10;;
29568;SDS011;16501;51.462;14.346;2022-08-19T11:34:31;19.40;;;16.75;;
29568;SDS011;16501;51.462;14.346;2022-08-19T11:36:57;22.85;;;17.20;;
29568;SDS011;16501;51.462;14.346;2022-08-19T11:39:25;27.77;;;17.40;;
29568;SDS011;16501;51.462;14.346;2022-08-19T11:41:52;18.95;;;16.25;;
29568;SDS011;16501;51.462;14.346;2022-08-19T11:44:17;20.85;;;16.90;;
29568;SDS011;16501;51.462;14.346;2022-08-19T11:46:45;20.38;;;16.67;;
29568;SDS011;16501;51.462;14.346;2022-08-19T11:49:13;17.15;;;15.40;;
29568;SDS011;16501;51.462;14.346;2022-08-19T11:51:40;22.90;;;16.73;;
29568;SDS011;16501;51.462;14.346;2022-08-19T11:54:09;23.83;;;16.90;;
29568;SDS011;16501;51.462;14.346;2022-08-19T11:56:36;20.55;;;15.98;;
29568;SDS011;16501;51.462;14.346;2022-08-19T11:59:03;20.17;;;15.70;;
29568;SDS011;16501;51.462;14.346;2022-08-19T12:01:28;16.38;;;14.68;;
29568;SDS011;16501;51.462;14.346;2022-08-19T12:03:56;16.73;;;13.52;;
29568;SDS011;16501;51.462;14.346;2022-08-19T12:06:26;16.48;;;14.55;;
29568;SDS011;16501;51.462;14.346;2022-08-19T12:11:23;16.70;;;14.90;;
29568;SDS011;16501;51.462;14.346;2022-08-19T12:13:49;17.20;;;14.40;;
29568;SDS011;16501;51.462;14.346;2022-08-19T12:16:17;18.10;;;16.08;;
29568;SDS011;16501;51.462;14.346;2022-08-19T12:18:45;17.95;;;15.00;;
29568;SDS011;16501;51.462;14.346;2022-08-19T12:21:14;20.25;;;15.73;;
29568;SDS011;16501;51.462;14.346;2022-08-19T12:23:41;20.05;;;15.95;;
29568;SDS011;16501;51.462;14.346;2022-08-19T12:26:08;21.90;;;17.15;;
29568;SDS011;16501;51.462;14.346;2022-08-19T12:28:34;19.23;;;15.63;;
29568;SDS011;16501;51.462;14.346;2022-08-19T12:31:01;19.23;;;16.40;;
29568;SDS011;16501;51.462;14.346;2022-08-19T12:33:26;19.10;;;15.93;;
29568;SDS011;16501;51.462;14.346;2022-08-19T12:35:53;21.67;;;16.80;;
29568;SDS011;16501;51.462;14.346;2022-08-19T12:38:19;18.88;;;16.30;;
29568;SDS011;16501;51.462;14.346;2022-08-19T12:40:46;24.73;;;16.27;;
29568;SDS011;16501;51.462;14.346;2022-08-19T12:43:12;18.70;;;16.27;;
29568;SDS011;16501;51.462;14.346;2022-08-19T12:45:38;17.77;;;15.23;;
29568;SDS011;16501;51.462;14.346;2022-08-19T12:48:04;19.65;;;16.65;;
29568;SDS011;16501;51.462;14.346;2022-08-19T12:50:47;21.88;;;16.88;;
29568;SDS011;16501;51.462;14.346;2022-08-19T12:53:38;19.52;;;15.98;;
29568;SDS011;16501;51.462;14.346;2022-08-19T12:56:05;18.38;;;16.27;;
29568;SDS011;16501;51.462;14.346;2022-08-19T12:58:31;19.98;;;16.60;;
29568;SDS011;16501;51.462;14.346;2022-08-19T13:00:59;17.85;;;15.80;;
29568;SDS011;16501;51.462;14.346;2022-08-19T13:03:24;18.02;;;14.98;;
29568;SDS011;16501;51.462;14.346;2022-08-19T13:05:54;17.80;;;15.65;;
29568;SDS011;16501;51.462;14.346;2022-08-19T13:08:19;17.77;;;15.85;;
29568;SDS011;16501;51.462;14.346;2022-08-19T13:10:44;20.92;;;16.40;;
29568;SDS011;16501;51.462;14.346;2022-08-19T13:13:09;17.40;;;15.45;;
29568;SDS011;16501;51.462;14.346;2022-08-19T13:15:36;19.67;;;16.10;;
29568;SDS011;16501;51.462;14.346;2022-08-19T13:18:04;22.10;;;16.65;;
29568;SDS011;16501;51.462;14.346;2022-08-19T13:20:30;20.05;;;16.48;;
29568;SDS011;16501;51.462;14.346;2022-08-19T13:22:56;24.58;;;17.92;;
29568;SDS011;16501;51.462;14.346;2022-08-19T13:25:22;19.85;;;16.15;;
29568;SDS011;16501;51.462;14.346;2022-08-19T13:27:48;19.15;;;16.02;;
29568;SDS011;16501;51.462;14.346;2022-08-19T13:30:16;24.65;;;17.13;;
29568;SDS011;16501;51.462;14.346;2022-08-19T13:33:02;23.15;;;16.90;;
29568;SDS011;16501;51.462;14.346;2022-08-19T13:35:44;20.55;;;17.27;;
29568;SDS011;16501;51.462;14.346;2022-08-19T13:38:21;23.83;;;17.95;;
29568;SDS011;16501;51.462;14.346;2022-08-19T13:40:47;26.85;;;16.95;;
29568;SDS011;16501;51.462;14.346;2022-08-19T13:43:14;22.40;;;16.98;;
29568;SDS011;16501;51.462;14.346;2022-08-19T13:45:40;22.55;;;18.40;;
29568;SDS011;16501;51.462;14.346;2022-08-19T13:48:06;21.17;;;18.20;;
29568;SDS011;16501;51.462;14.346;2022-08-19T13:50:33;24.83;;;17.60;;
29568;SDS011;16501;51.462;14.346;2022-08-19T13:53:02;21.80;;;18.30;;
29568;SDS011;16501;51.462;14.346;2022-08-19T13:55:28;23.05;;;18.33;;
29568;SDS011;16501;51.462;14.346;2022-08-19T13:57:54;28.60;;;20.58;;
29568;SDS011;16501;51.462;14.346;2022-08-19T14:00:22;28.27;;;20.08;;
29568;SDS011;16501;51.462;14.346;2022-08-19T14:02:51;29.85;;;21.73;;
29568;SDS011;16501;51.462;14.346;2022-08-19T14:05:18;34.65;;;21.70;;
29568;SDS011;16501;51.462;14.346;2022-08-19T14:07:44;25.90;;;19.88;;
29568;SDS011;16501;51.462;14.346;2022-08-19T14:10:11;28.80;;;20.58;;
29568;SDS011;16501;51.462;14.346;2022-08-19T14:12:37;31.73;;;20.45;;
29568;SDS011;16501;51.462;14.346;2022-08-19T14:15:04;30.88;;;22.17;;
29568;SDS011;16501;51.462;14.346;2022-08-19T14:17:32;25.13;;;19.70;;
29568;SDS011;16501;51.462;14.346;2022-08-19T14:20:00;29.73;;;19.75;;
29568;SDS011;16501;51.462;14.346;2022-08-19T14:22:29;29.02;;;20.67;;
29568;SDS011;16501;51.462;14.346;2022-08-19T14:24:56;37.17;;;24.48;;
29568;SDS011;16501;51.462;14.346;2022-08-19T14:27:22;34.67;;;24.08;;
29568;SDS011;16501;51.462;14.346;2022-08-19T14:29:48;32.42;;;22.48;;
29568;SDS011;16501;51.462;14.346;2022-08-19T14:32:13;31.15;;;21.58;;